createdAt,value
2017-10-11T00:03:15.916Z,75.05
2017-10-11T00:08:17.840Z,75.53
2017-10-11T00:13:19.769Z,74.88
2017-10-11T00:18:21.686Z,74.96
2017-10-11T00:23:24.332Z,75.49
2017-10-11T00:28:26.277Z,75.45
2017-10-11T00:33:28.207Z,75.66
2017-10-11T00:38:30.187Z,75.18
2017-10-11T00:43:33.695Z,75.18
2017-10-11T00:48:36.396Z,75.02
2017-10-11T00:53:38.392Z,75.03
2017-10-11T00:58:41.124Z,74.50
2017-10-11T01:03:43.073Z,74.75
2017-10-11T01:08:45.861Z,74.49
2017-10-11T01:13:47.774Z,74.38
2017-10-11T01:18:49.713Z,74.79
2017-10-11T01:23:51.705Z,74.41
2017-10-11T01:28:53.719Z,74.41
2017-10-11T01:33:55.852Z,74.31
2017-10-11T01:38:58.647Z,73.82
2017-10-11T01:44:00.683Z,73.94
2017-10-11T01:49:03.456Z,74.03
2017-10-11T01:54:05.432Z,73.57
2017-10-11T01:59:07.396Z,73.85
2017-10-11T02:04:09.375Z,73.65
2017-10-11T02:09:11.314Z,73.91
2017-10-11T02:14:14.016Z,74.20
2017-10-11T02:19:15.921Z,74.12
2017-10-11T02:24:17.864Z,74.22
2017-10-11T02:29:20.564Z,74.03
2017-10-11T02:34:22.568Z,74.15
2017-10-11T02:39:24.454Z,74.50
2017-10-11T02:44:26.375Z,74.29
2017-10-11T02:49:28.269Z,74.35
2017-10-11T02:54:30.180Z,73.96
2017-10-11T02:59:32.104Z,74.14
2017-10-11T03:04:34.735Z,74.42
2017-10-11T03:09:36.658Z,74.29
2017-10-11T03:14:38.567Z,74.25
2017-10-11T03:19:40.458Z,74.22
2017-10-11T03:24:42.395Z,74.33
2017-10-11T03:29:46.422Z,74.28
2017-10-11T03:34:49.251Z,74.19
2017-10-11T03:39:51.219Z,73.64
2017-10-11T03:44:53.164Z,73.87
2017-10-11T03:49:55.087Z,74.05
2017-10-11T03:54:57.007Z,74.31
2017-10-11T03:59:58.903Z,74.73
2017-10-11T04:05:00.844Z,74.57
2017-10-11T04:10:02.787Z,74.88
2017-10-11T04:15:04.731Z,74.79
2017-10-11T04:20:07.423Z,74.76
2017-10-11T04:25:09.348Z,74.17
2017-10-11T04:30:11.298Z,73.39
2017-10-11T04:35:13.388Z,73.52
2017-10-11T04:40:15.328Z,73.07
2017-10-11T04:45:17.307Z,72.94
2017-10-11T04:50:19.244Z,72.86
2017-10-11T04:55:21.215Z,73.18
2017-10-11T05:00:23.204Z,73.34
2017-10-11T05:05:25.381Z,73.45
2017-10-11T05:10:28.052Z,73.67
2017-10-11T05:15:30.108Z,74.23
2017-10-11T05:20:32.040Z,74.73
2017-10-11T05:25:34.031Z,75.94
2017-10-11T05:30:36.679Z,76.38
2017-10-11T05:35:38.645Z,76.04
2017-10-11T05:40:43.608Z,75.68
2017-10-11T05:45:46.201Z,75.60
2017-10-11T05:50:48.123Z,75.92
2017-10-11T05:55:50.037Z,74.97
2017-10-11T06:00:51.971Z,74.92
2017-10-11T06:05:53.952Z,74.77
2017-10-11T06:10:55.995Z,75.29
2017-10-11T06:15:57.967Z,74.73
2017-10-11T06:21:00.642Z,74.71
2017-10-11T06:26:02.667Z,74.16
2017-10-11T06:31:04.597Z,74.07
2017-10-11T06:36:06.546Z,73.81
2017-10-11T06:41:08.451Z,72.49
2017-10-11T06:46:10.372Z,72.65
2017-10-11T06:51:12.270Z,72.35
2017-10-11T06:56:14.233Z,72.03
2017-10-11T07:01:16.199Z,72.29
2017-10-11T07:06:18.133Z,71.67
2017-10-11T07:11:20.087Z,71.57
2017-10-11T07:16:22.034Z,71.76
2017-10-11T07:21:24.766Z,71.63
2017-10-11T07:26:27.461Z,71.85
2017-10-11T07:31:29.369Z,71.70
2017-10-11T07:36:31.322Z,71.97
2017-10-11T07:41:33.225Z,71.89
2017-10-11T07:46:35.143Z,71.68
2017-10-11T07:51:37.113Z,72.33
2017-10-11T07:56:39.831Z,72.25
2017-10-11T08:01:42.515Z,72.22
2017-10-11T08:06:44.483Z,71.88
2017-10-11T08:11:46.427Z,71.25
2017-10-11T08:16:48.362Z,71.40
2017-10-11T08:21:51.010Z,71.92
2017-10-11T08:26:52.945Z,71.80
2017-10-11T08:31:54.878Z,72.48
2017-10-11T08:36:56.851Z,72.95
2017-10-11T08:41:58.792Z,73.42
2017-10-11T08:47:01.563Z,73.33
2017-10-11T08:52:03.577Z,73.30
2017-10-11T08:57:05.499Z,72.38
2017-10-11T09:02:07.418Z,72.05
2017-10-11T09:07:10.102Z,72.55
2017-10-11T09:12:12.039Z,72.72
2017-10-11T09:17:13.992Z,71.46
2017-10-11T09:22:17.019Z,69.50
2017-10-11T09:27:18.984Z,69.20
2017-10-11T09:32:21.708Z,69.50
2017-10-11T09:37:24.451Z,70.38
2017-10-11T09:42:26.781Z,70.29
2017-10-11T09:47:29.025Z,70.00
2017-10-11T09:52:31.065Z,70.23
2017-10-11T09:57:33.844Z,69.92
2017-10-11T10:02:35.811Z,70.08
2017-10-11T10:07:37.722Z,69.05
2017-10-11T10:12:39.886Z,68.64
2017-10-11T10:17:41.804Z,68.06
2017-10-11T10:22:44.483Z,68.66
2017-10-11T10:27:46.400Z,68.34
2017-10-11T10:32:48.423Z,67.20
2017-10-11T10:37:51.086Z,66.21
2017-10-11T10:42:53.034Z,65.33
2017-10-11T10:47:55.021Z,65.03
2017-10-11T10:52:56.983Z,65.17
2017-10-11T10:57:58.899Z,64.88
2017-10-11T11:03:07.436Z,63.90
2017-10-11T11:08:10.915Z,64.50
2017-10-11T11:13:12.907Z,63.73
2017-10-11T11:18:16.371Z,63.28
2017-10-11T11:23:19.806Z,63.23
2017-10-11T11:28:31.281Z,63.45
2017-10-11T11:33:33.804Z,63.86
2017-10-11T11:38:36.474Z,63.27
2017-10-11T11:43:38.397Z,63.28
2017-10-11T11:48:44.937Z,64.53
2017-10-11T11:53:57.166Z,64.61
2017-10-11T11:58:59.942Z,64.21
2017-10-11T12:04:01.997Z,64.18
2017-10-11T12:09:04.726Z,64.76
2017-10-11T12:14:07.406Z,64.87
2017-10-11T12:19:09.372Z,64.85
2017-10-11T12:24:12.046Z,64.74
2017-10-11T12:29:13.978Z,64.63
2017-10-11T12:34:15.880Z,64.22
2017-10-11T12:39:18.536Z,63.96
2017-10-11T12:44:20.436Z,61.92
2017-10-11T12:49:22.329Z,62.97
2017-10-11T12:54:24.240Z,63.13
2017-10-11T12:59:26.246Z,63.42
2017-10-11T13:04:28.137Z,63.21
2017-10-11T13:09:30.041Z,61.98
2017-10-11T13:14:31.934Z,61.36
2017-10-11T13:19:34.575Z,60.02
2017-10-11T13:24:36.460Z,58.78
2017-10-11T13:29:39.100Z,59.29
2017-10-11T13:34:41.008Z,59.15
2017-10-11T13:39:42.915Z,60.08
2017-10-11T13:44:44.793Z,60.60
2017-10-11T13:49:46.683Z,60.94
2017-10-11T13:54:48.575Z,60.45
2017-10-11T13:59:51.413Z,60.66
2017-10-11T14:04:53.423Z,60.39
2017-10-11T14:09:55.388Z,60.90
2017-10-11T14:14:57.385Z,61.09
2017-10-11T14:19:59.364Z,61.50
2017-10-11T14:25:01.534Z,60.99
2017-10-11T14:30:03.595Z,60.32
2017-10-11T14:35:05.585Z,60.18
2017-10-11T14:40:08.391Z,59.90
2017-10-11T14:45:10.477Z,60.56
2017-10-11T14:50:13.166Z,60.78
2017-10-11T14:55:15.431Z,60.88
2017-10-11T15:00:17.890Z,60.94
2017-10-11T15:05:20.241Z,61.44
2017-10-11T15:10:25.124Z,60.70
2017-10-11T15:15:28.457Z,60.41
2017-10-11T15:20:32.009Z,60.58
2017-10-11T15:25:34.242Z,60.90
2017-10-11T15:30:37.090Z,60.72
2017-10-11T15:35:39.285Z,60.89
2017-10-11T15:40:41.504Z,59.99
2017-10-11T15:45:43.717Z,60.40
2017-10-11T15:50:45.869Z,59.91
2017-10-11T15:55:48.251Z,60.31
2017-10-11T16:00:52.912Z,60.00
2017-10-11T16:05:55.720Z,60.48
2017-10-11T16:10:57.650Z,60.78
2017-10-11T16:15:59.574Z,60.92
2017-10-11T16:21:01.698Z,60.82
2017-10-11T16:26:03.862Z,61.03
2017-10-11T16:31:06.289Z,61.31
2017-10-11T16:36:08.245Z,61.42
2017-10-11T16:41:11.344Z,61.32
2017-10-11T16:46:13.257Z,61.50
2017-10-11T16:51:18.554Z,61.81
2017-10-11T16:56:21.512Z,61.95
2017-10-11T17:01:23.704Z,61.61
2017-10-11T17:06:27.072Z,61.57
2017-10-11T17:11:35.421Z,61.96
2017-10-11T17:16:40.191Z,61.90
2017-10-11T17:21:42.457Z,62.12
2017-10-11T17:26:46.035Z,61.87
2017-10-11T17:31:50.304Z,62.00
2017-10-11T17:36:58.444Z,62.12
2017-10-11T17:42:01.339Z,62.17
2017-10-11T17:47:04.972Z,62.31
2017-10-11T17:52:07.939Z,62.52
2017-10-11T17:57:14.263Z,62.72
2017-10-11T18:02:16.375Z,62.88
2017-10-11T18:07:19.799Z,63.12
2017-10-11T18:12:23.202Z,63.29
2017-10-11T18:17:26.204Z,63.42
2017-10-11T18:22:32.464Z,63.06
2017-10-11T18:27:39.046Z,63.11
2017-10-11T18:32:44.568Z,63.04
2017-10-11T18:37:53.349Z,63.05
2017-10-11T18:42:56.044Z,63.03
2017-10-11T18:47:57.995Z,63.02
2017-10-11T18:52:59.948Z,63.36
2017-10-11T18:58:02.718Z,63.35
2017-10-11T19:03:04.636Z,63.55
2017-10-11T19:08:06.629Z,63.53
2017-10-11T19:13:08.566Z,63.77
2017-10-11T19:18:11.264Z,63.81
2017-10-11T19:23:13.343Z,63.96
2017-10-11T19:28:15.346Z,64.34
2017-10-11T19:33:17.255Z,64.14
2017-10-11T19:38:19.247Z,64.33
2017-10-11T19:43:21.194Z,64.21
2017-10-11T19:48:23.328Z,64.04
2017-10-11T19:53:26.108Z,64.10
2017-10-11T19:58:28.093Z,63.86
2017-10-11T20:03:30.310Z,63.91
2017-10-11T20:08:35.486Z,63.65
2017-10-11T20:13:40.513Z,63.87
2017-10-11T20:18:43.629Z,63.88
2017-10-11T20:23:45.783Z,63.99
2017-10-11T20:28:47.734Z,64.03
2017-10-11T20:33:49.630Z,64.52
2017-10-11T20:38:51.849Z,64.22
2017-10-11T20:43:53.772Z,63.89
2017-10-11T20:48:55.788Z,63.54
2017-10-11T20:53:57.844Z,63.68
2017-10-11T20:58:59.776Z,63.67
2017-10-11T21:04:01.716Z,63.61
2017-10-11T21:09:03.713Z,63.94
2017-10-11T21:14:06.350Z,63.79
2017-10-11T21:19:08.265Z,64.50
2017-10-11T21:24:10.222Z,64.90
2017-10-11T21:29:12.143Z,65.02
2017-10-11T21:34:14.046Z,64.84
2017-10-11T21:39:16.840Z,65.13
2017-10-11T21:44:18.899Z,65.16
2017-10-11T21:49:20.898Z,64.83
2017-10-11T21:54:22.831Z,64.87
2017-10-11T21:59:24.763Z,64.97
2017-10-11T22:04:26.659Z,64.96
2017-10-11T22:09:30.344Z,65.01
2017-10-11T22:14:33.447Z,65.13
2017-10-11T22:19:35.334Z,64.84
2017-10-11T22:24:37.303Z,64.31
2017-10-11T22:29:39.215Z,64.62
2017-10-11T22:34:41.201Z,64.58
2017-10-11T22:39:43.164Z,64.71
2017-10-11T22:44:45.055Z,64.24
2017-10-11T22:49:47.037Z,64.38
2017-10-11T22:54:48.955Z,64.75
2017-10-11T22:59:50.919Z,64.69
2017-10-11T23:04:53.051Z,64.31
2017-10-11T23:09:54.975Z,64.32
2017-10-11T23:14:56.912Z,64.27
2017-10-11T23:19:59.651Z,64.42
2017-10-11T23:25:01.575Z,64.48
2017-10-11T23:30:03.492Z,64.24
2017-10-11T23:35:05.400Z,64.21
2017-10-11T23:40:07.286Z,64.21
2017-10-11T23:45:09.235Z,64.28
2017-10-11T23:50:11.200Z,64.22
2017-10-11T23:55:13.162Z,64.23
